createdAt,value
2019-02-18T00:01:29.124Z,6.50
2019-02-18T00:03:59.072Z,6.27
2019-02-18T00:06:29.040Z,6.40
2019-02-18T00:08:59.038Z,6.32
2019-02-18T00:11:29.018Z,5.95
2019-02-18T00:13:58.996Z,6.16
2019-02-18T00:16:29.810Z,6.36
2019-02-18T00:18:59.880Z,6.28
2019-02-18T00:21:29.926Z,6.20
2019-02-18T00:23:59.960Z,6.22
2019-02-18T00:26:29.944Z,6.01
2019-02-18T00:28:59.904Z,5.99
2019-02-18T00:31:29.897Z,6.15
2019-02-18T00:33:59.860Z,6.03
2019-02-18T00:36:29.830Z,6.18
2019-02-18T00:38:59.820Z,5.99
2019-02-18T00:41:29.831Z,5.99
2019-02-18T00:43:59.804Z,6.13
2019-02-18T00:46:29.790Z,6.15
2019-02-18T00:48:59.797Z,6.06
2019-02-18T00:51:29.800Z,5.97
2019-02-18T00:53:59.787Z,6.06
2019-02-18T00:56:29.768Z,5.98
2019-02-18T00:58:59.734Z,6.10
2019-02-18T01:01:29.725Z,6.19
2019-02-18T01:03:59.708Z,5.89
2019-02-18T01:06:29.830Z,6.05
2019-02-18T01:08:59.815Z,6.03
2019-02-18T01:11:29.784Z,5.94
2019-02-18T01:14:00.539Z,6.05
2019-02-18T01:16:30.775Z,6.03
2019-02-18T01:19:00.799Z,5.86
2019-02-18T01:21:30.828Z,5.94
2019-02-18T01:24:00.873Z,5.91
2019-02-18T01:26:30.893Z,5.82
2019-02-18T01:29:00.937Z,5.80
2019-02-18T01:31:30.885Z,5.84
2019-02-18T01:34:00.924Z,5.92
2019-02-18T01:36:30.973Z,5.92
2019-02-18T01:39:01.021Z,5.90
2019-02-18T01:41:31.070Z,5.99
2019-02-18T01:44:01.101Z,5.97
2019-02-18T01:46:31.138Z,5.99
2019-02-18T01:49:01.190Z,5.87
2019-02-18T01:51:31.231Z,5.98
2019-02-18T01:54:01.350Z,5.93
2019-02-18T01:56:31.385Z,5.86
2019-02-18T01:59:02.825Z,5.89
2019-02-18T02:01:32.849Z,5.61
2019-02-18T02:04:03.054Z,5.71
2019-02-18T02:06:33.097Z,5.75
2019-02-18T02:09:03.136Z,5.77
2019-02-18T02:11:33.105Z,5.75
2019-02-18T02:14:03.143Z,5.59
2019-02-18T02:16:33.179Z,5.46
2019-02-18T02:19:03.511Z,5.42
2019-02-18T02:21:33.553Z,5.31
2019-02-18T02:24:04.489Z,5.27
2019-02-18T02:26:34.517Z,5.12
2019-02-18T02:29:04.525Z,5.00
2019-02-18T02:31:34.774Z,4.90
2019-02-18T02:34:04.821Z,5.23
2019-02-18T02:36:34.855Z,5.15
2019-02-18T02:39:06.085Z,5.27
2019-02-18T02:41:36.109Z,5.05
2019-02-18T02:44:06.083Z,5.05
2019-02-18T02:46:36.107Z,4.78
2019-02-18T02:49:06.169Z,4.99
2019-02-18T02:51:36.109Z,5.06
2019-02-18T02:54:06.067Z,4.86
2019-02-18T02:56:37.375Z,4.93
2019-02-18T02:59:09.067Z,4.81
2019-02-18T03:01:39.029Z,4.83
2019-02-18T03:04:09.064Z,4.66
2019-02-18T03:06:39.079Z,4.81
2019-02-18T03:09:10.138Z,4.64
2019-02-18T03:11:40.098Z,4.62
2019-02-18T03:14:10.083Z,4.59
2019-02-18T03:16:40.031Z,4.70
2019-02-18T03:19:10.077Z,4.65
2019-02-18T03:21:40.028Z,4.75
2019-02-18T03:24:10.009Z,4.77
2019-02-18T03:26:39.951Z,4.80
2019-02-18T03:29:39.128Z,4.89
2019-02-18T03:32:09.108Z,4.79
2019-02-18T03:34:42.131Z,4.80
2019-02-18T03:37:12.180Z,4.55
2019-02-18T03:39:42.161Z,4.64
2019-02-18T03:42:12.181Z,4.78
2019-02-18T03:44:42.173Z,4.77
2019-02-18T03:47:12.128Z,4.89
2019-02-18T03:49:42.206Z,4.76
2019-02-18T03:52:12.447Z,4.96
2019-02-18T03:54:42.473Z,5.02
2019-02-18T03:57:12.551Z,4.89
2019-02-18T03:59:42.577Z,4.96
2019-02-18T04:02:12.572Z,4.85
2019-02-18T04:04:42.586Z,4.78
2019-02-18T04:07:12.647Z,4.70
2019-02-18T04:09:42.667Z,4.72
2019-02-18T04:12:12.655Z,4.68
2019-02-18T04:14:42.617Z,4.82
2019-02-18T04:17:12.597Z,4.78
2019-02-18T04:19:42.579Z,4.69
2019-02-18T04:22:12.557Z,4.78
2019-02-18T04:24:42.591Z,4.71
2019-02-18T04:27:12.605Z,4.55
2019-02-18T04:29:42.591Z,4.66
2019-02-18T04:32:12.637Z,4.50
2019-02-18T04:34:42.647Z,4.59
2019-02-18T04:37:12.622Z,4.57
2019-02-18T04:39:42.630Z,4.42
2019-02-18T04:42:12.578Z,4.49
2019-02-18T04:44:42.552Z,4.54
2019-02-18T04:47:12.508Z,4.47
2019-02-18T04:49:42.513Z,4.41
2019-02-18T04:52:12.495Z,4.35
2019-02-18T04:54:42.565Z,4.31
2019-02-18T04:57:12.509Z,4.48
2019-02-18T04:59:42.508Z,4.64
2019-02-18T05:02:12.465Z,4.63
2019-02-18T05:04:42.446Z,4.74
2019-02-18T05:07:12.431Z,4.84
2019-02-18T05:09:42.373Z,4.82
2019-02-18T05:12:12.321Z,4.82
2019-02-18T05:14:42.279Z,4.74
2019-02-18T05:17:12.255Z,4.82
2019-02-18T05:19:42.199Z,4.87
2019-02-18T05:22:12.170Z,4.55
2019-02-18T05:24:42.159Z,4.57
2019-02-18T05:27:12.112Z,4.23
2019-02-18T05:29:42.151Z,4.12
2019-02-18T05:32:12.134Z,4.28
2019-02-18T05:34:51.530Z,4.31
2019-02-18T05:37:21.589Z,4.17
2019-02-18T05:39:51.533Z,4.42
2019-02-18T05:42:21.500Z,4.48
2019-02-18T05:44:51.676Z,4.50
2019-02-18T05:47:21.652Z,4.26
2019-02-18T05:49:51.641Z,4.15
2019-02-18T05:52:21.614Z,3.97
2019-02-18T05:54:51.581Z,3.98
2019-02-18T05:57:22.921Z,4.09
2019-02-18T05:59:53.208Z,3.94
2019-02-18T06:02:23.164Z,4.04
2019-02-18T06:04:53.157Z,3.79
2019-02-18T06:07:23.094Z,3.95
2019-02-18T06:09:53.068Z,4.06
2019-02-18T06:12:23.278Z,3.78
2019-02-18T06:14:53.324Z,3.90
2019-02-18T06:17:23.428Z,4.02
2019-02-18T06:19:53.534Z,4.09
2019-02-18T06:22:23.524Z,3.87
2019-02-18T06:24:53.534Z,3.76
2019-02-18T06:27:23.524Z,3.65
2019-02-18T06:29:53.544Z,3.76
2019-02-18T06:32:23.519Z,3.79
2019-02-18T06:34:53.539Z,3.71
2019-02-18T06:37:23.536Z,3.79
2019-02-18T06:39:53.533Z,3.83
2019-02-18T06:42:23.513Z,3.62
2019-02-18T06:45:12.002Z,3.73
2019-02-18T06:47:42.067Z,3.80
2019-02-18T06:50:12.038Z,3.98
2019-02-18T06:52:41.999Z,3.87
2019-02-18T06:55:12.002Z,3.70
2019-02-18T06:58:01.431Z,3.79
2019-02-18T07:00:49.396Z,3.92
2019-02-18T07:03:29.777Z,3.93
2019-02-18T07:06:04.720Z,3.79
2019-02-18T07:08:43.693Z,3.80
2019-02-18T07:11:32.822Z,3.87
2019-02-18T07:14:04.317Z,3.77
2019-02-18T07:16:45.101Z,3.77
2019-02-18T07:19:15.131Z,3.84
2019-02-18T07:21:45.173Z,3.89
2019-02-18T07:24:15.479Z,3.96
2019-02-18T07:26:45.538Z,3.90
2019-02-18T07:29:15.547Z,4.13
2019-02-18T07:31:45.513Z,4.03
2019-02-18T07:34:15.491Z,4.02
2019-02-18T07:36:45.519Z,4.19
2019-02-18T07:39:15.565Z,4.04
2019-02-18T07:41:45.545Z,4.08
2019-02-18T07:44:15.525Z,4.32
2019-02-18T07:46:45.517Z,4.35
2019-02-18T07:49:15.537Z,4.18
2019-02-18T07:51:45.534Z,4.23
2019-02-18T07:54:22.107Z,4.33
2019-02-18T07:56:52.103Z,4.24
2019-02-18T07:59:22.111Z,4.25
2019-02-18T08:01:58.992Z,4.29
2019-02-18T08:04:29.003Z,4.22
2019-02-18T08:06:58.992Z,4.41
2019-02-18T08:09:29.009Z,4.39
2019-02-18T08:11:58.991Z,4.35
2019-02-18T08:14:28.996Z,4.35
2019-02-18T08:16:59.064Z,4.47
2019-02-18T08:19:29.071Z,4.56
2019-02-18T08:21:59.433Z,4.63
2019-02-18T08:24:29.513Z,4.65
2019-02-18T08:27:01.029Z,4.65
2019-02-18T08:29:32.793Z,4.80
2019-02-18T08:32:02.890Z,4.85
2019-02-18T08:34:33.019Z,4.87
2019-02-18T08:37:03.080Z,4.99
2019-02-18T08:39:33.169Z,5.07
2019-02-18T08:42:03.219Z,5.07
2019-02-18T08:44:33.325Z,5.12
2019-02-18T08:47:03.297Z,5.17
2019-02-18T08:49:33.323Z,5.18
2019-02-18T08:52:03.383Z,5.19
2019-02-18T08:54:33.471Z,5.34
2019-02-18T08:57:03.519Z,5.30
2019-02-18T08:59:33.619Z,5.36
2019-02-18T09:02:03.685Z,5.42
2019-02-18T09:04:33.778Z,5.39
2019-02-18T09:07:03.960Z,5.54
2019-02-18T09:09:34.059Z,5.62
2019-02-18T09:12:04.050Z,5.70
2019-02-18T09:14:34.072Z,5.82
2019-02-18T09:17:04.064Z,5.86
2019-02-18T09:19:34.135Z,6.07
2019-02-18T09:22:23.149Z,5.97
2019-02-18T09:25:02.298Z,5.86
2019-02-18T09:27:32.310Z,5.93
2019-02-18T09:30:02.368Z,6.02
2019-02-18T09:32:32.446Z,6.24
2019-02-18T09:35:02.536Z,6.43
2019-02-18T09:37:32.628Z,6.57
2019-02-18T09:40:02.708Z,6.55
2019-02-18T09:42:32.762Z,6.78
2019-02-18T09:45:02.863Z,6.65
2019-02-18T09:47:32.915Z,6.97
2019-02-18T09:50:03.034Z,6.94
2019-02-18T09:52:33.044Z,7.02
2019-02-18T09:55:03.120Z,6.95
2019-02-18T09:57:33.196Z,7.11
2019-02-18T10:00:03.274Z,7.21
2019-02-18T10:02:33.364Z,7.51
2019-02-18T10:05:03.428Z,7.48
2019-02-18T10:11:08.829Z,7.61
2019-02-18T10:13:38.963Z,7.72
2019-02-18T10:16:09.072Z,7.70
2019-02-18T10:18:39.152Z,7.92
2019-02-18T10:21:09.236Z,8.02
2019-02-18T10:23:39.328Z,8.21
2019-02-18T10:26:09.453Z,8.02
2019-02-18T10:28:39.574Z,8.15
2019-02-18T10:31:09.669Z,8.46
2019-02-18T10:33:39.738Z,8.44
2019-02-18T10:36:09.858Z,8.42
2019-02-18T10:38:40.302Z,8.64
2019-02-18T10:41:10.565Z,8.73
2019-02-18T10:43:40.650Z,8.87
2019-02-18T10:46:10.747Z,8.74
2019-02-18T10:48:40.853Z,8.91
2019-02-18T10:51:11.053Z,9.13
2019-02-18T10:53:41.087Z,8.97
2019-02-18T10:56:11.130Z,9.17
2019-02-18T10:58:41.250Z,9.32
2019-02-18T11:01:11.252Z,9.37
2019-02-18T11:03:41.298Z,9.31
2019-02-18T11:06:11.326Z,9.23
2019-02-18T11:08:41.403Z,9.47
2019-02-18T11:11:17.100Z,9.40
2019-02-18T11:13:43.379Z,9.45
2019-02-18T11:16:13.462Z,9.81
2019-02-18T11:18:43.754Z,9.64
2019-02-18T11:21:14.006Z,9.73
2019-02-18T11:23:44.098Z,9.62
2019-02-18T11:26:14.192Z,9.71
2019-02-18T11:28:44.317Z,9.54
2019-02-18T11:31:14.437Z,9.54
2019-02-18T11:33:44.951Z,9.92
2019-02-18T11:36:15.059Z,9.74
2019-02-18T11:38:45.170Z,10.16
2019-02-18T11:41:15.200Z,10.33
2019-02-18T11:43:45.244Z,10.02
2019-02-18T11:46:15.260Z,9.91
2019-02-18T11:48:45.313Z,10.01
2019-02-18T11:51:15.369Z,10.19
2019-02-18T11:53:45.425Z,10.36
2019-02-18T11:56:15.505Z,11.02
2019-02-18T11:58:45.557Z,11.03
2019-02-18T12:01:15.665Z,10.55
2019-02-18T12:03:45.732Z,10.36
2019-02-18T12:06:15.830Z,10.47
2019-02-18T12:08:45.852Z,10.29
2019-02-18T12:11:15.873Z,10.31
2019-02-18T12:13:45.913Z,10.48
2019-02-18T12:16:15.936Z,10.72
2019-02-18T12:18:45.974Z,10.85
2019-02-18T12:21:16.146Z,10.48
2019-02-18T12:23:46.179Z,11.13
2019-02-18T12:26:16.186Z,10.95
2019-02-18T12:28:46.235Z,10.97
2019-02-18T12:31:16.322Z,11.20
2019-02-18T12:33:46.445Z,11.23
2019-02-18T12:36:16.463Z,11.44
2019-02-18T12:38:46.501Z,11.09
2019-02-18T12:41:16.588Z,11.19
2019-02-18T12:43:47.014Z,11.37
2019-02-18T12:46:16.998Z,11.66
2019-02-18T12:48:47.048Z,11.63
2019-02-18T12:51:17.107Z,11.64
2019-02-18T12:53:47.155Z,11.86
2019-02-18T12:56:17.211Z,11.54
2019-02-18T12:58:54.475Z,11.90
2019-02-18T13:01:19.260Z,12.17
2019-02-18T13:03:49.287Z,11.94
2019-02-18T13:06:19.373Z,12.18
2019-02-18T13:08:49.441Z,11.98
2019-02-18T13:11:19.507Z,11.91
2019-02-18T13:13:49.528Z,11.77
2019-02-18T13:16:19.618Z,12.01
2019-02-18T13:18:49.652Z,11.89
2019-02-18T13:21:19.703Z,12.10
2019-02-18T13:23:49.733Z,12.15
2019-02-18T13:26:19.762Z,12.47
2019-02-18T13:28:49.867Z,12.28
2019-02-18T13:31:19.912Z,11.87
2019-02-18T13:33:49.941Z,12.31
2019-02-18T13:36:20.009Z,12.31
2019-02-18T13:38:50.071Z,12.68
2019-02-18T13:41:20.119Z,12.52
2019-02-18T13:43:50.182Z,12.44
2019-02-18T13:46:20.241Z,12.16
2019-02-18T13:48:50.345Z,11.96
2019-02-18T13:51:24.276Z,12.00
2019-02-18T13:53:52.241Z,12.02
2019-02-18T13:56:22.319Z,12.03
2019-02-18T13:58:52.710Z,12.18
2019-02-18T14:01:22.959Z,11.85
2019-02-18T14:03:53.097Z,11.86
2019-02-18T14:06:23.146Z,12.51
2019-02-18T14:08:53.172Z,12.00
2019-02-18T14:11:23.214Z,12.22
2019-02-18T14:13:53.235Z,12.28
2019-02-18T14:16:23.306Z,12.59
2019-02-18T14:18:53.341Z,12.21
2019-02-18T14:21:23.381Z,12.28
2019-02-18T14:23:53.412Z,12.40
2019-02-18T14:26:23.657Z,12.42
2019-02-18T14:28:53.683Z,12.49
2019-02-18T14:31:23.741Z,12.33
2019-02-18T14:33:53.771Z,12.32
2019-02-18T14:36:23.835Z,12.55
2019-02-18T14:38:53.846Z,12.79
2019-02-18T14:41:24.101Z,12.58
2019-02-18T14:43:54.091Z,12.79
2019-02-18T14:46:24.129Z,12.54
2019-02-18T14:48:54.199Z,12.54
2019-02-18T14:51:24.254Z,12.65
2019-02-18T14:53:54.363Z,12.83
2019-02-18T14:56:24.373Z,12.66
2019-02-18T14:58:54.493Z,12.64
2019-02-18T15:01:24.521Z,12.81
2019-02-18T15:03:54.541Z,12.66
2019-02-18T15:06:24.666Z,12.45
2019-02-18T15:08:55.091Z,12.45
2019-02-18T15:11:25.189Z,12.56
2019-02-18T15:13:55.237Z,12.56
2019-02-18T15:16:25.288Z,12.65
2019-02-18T15:18:55.395Z,12.55
2019-02-18T15:21:25.416Z,12.46
2019-02-18T15:23:55.462Z,12.58
2019-02-18T15:26:25.479Z,12.54
2019-02-18T15:28:55.597Z,12.54
2019-02-18T15:31:25.605Z,12.44
2019-02-18T15:33:55.671Z,12.36
2019-02-18T15:36:26.006Z,12.33
2019-02-18T15:38:56.091Z,12.16
2019-02-18T15:41:26.115Z,12.25
2019-02-18T15:43:56.154Z,12.16
2019-02-18T15:46:26.226Z,12.21
2019-02-18T15:48:56.306Z,12.16
2019-02-18T15:51:26.407Z,12.10
2019-02-18T15:53:56.487Z,12.02
2019-02-18T15:56:26.547Z,11.96
2019-02-18T15:58:56.621Z,11.96
2019-02-18T16:01:26.652Z,11.92
2019-02-18T16:03:56.954Z,11.85
2019-02-18T16:06:27.119Z,11.85
2019-02-18T16:08:57.140Z,11.83
2019-02-18T16:11:27.203Z,11.75
2019-02-18T16:13:57.271Z,11.71
2019-02-18T16:16:27.407Z,11.70
2019-02-18T16:18:57.722Z,11.76
2019-02-18T16:21:27.864Z,11.62
2019-02-18T16:23:57.976Z,11.59
2019-02-18T16:26:28.082Z,11.52
2019-02-18T16:28:58.188Z,11.45
2019-02-18T16:31:30.418Z,11.45
2019-02-18T16:34:00.044Z,11.41
2019-02-18T16:36:30.246Z,11.32
2019-02-18T16:39:00.415Z,11.31
2019-02-18T16:41:30.532Z,11.26
2019-02-18T16:44:00.751Z,11.23
2019-02-18T16:46:31.430Z,11.12
2019-02-18T16:49:01.608Z,11.07
2019-02-18T16:51:31.904Z,11.00
2019-02-18T16:54:02.038Z,10.90
2019-02-18T16:56:32.120Z,10.90
2019-02-18T16:59:02.418Z,10.86
2019-02-18T17:01:32.599Z,10.81
2019-02-18T17:04:02.701Z,10.81
2019-02-18T17:06:32.844Z,10.69
2019-02-18T17:09:05.389Z,10.49
2019-02-18T17:11:35.487Z,10.52
2019-02-18T17:14:05.600Z,10.37
2019-02-18T17:16:35.672Z,10.38
2019-02-18T17:19:05.688Z,10.40
2019-02-18T17:21:35.726Z,10.45
2019-02-18T17:24:05.761Z,10.38
2019-02-18T17:26:36.244Z,10.42
2019-02-18T17:29:06.281Z,10.42
2019-02-18T17:31:36.329Z,10.43
2019-02-18T17:34:06.488Z,10.35
2019-02-18T17:36:36.526Z,10.20
2019-02-18T17:39:07.194Z,10.28
2019-02-18T17:41:37.463Z,10.32
2019-02-18T17:44:07.564Z,10.28
2019-02-18T17:46:37.590Z,10.16
2019-02-18T17:49:07.652Z,10.27
2019-02-18T17:51:37.763Z,10.20
2019-02-18T17:54:07.812Z,10.18
2019-02-18T17:56:37.832Z,10.14
2019-02-18T17:59:07.918Z,10.05
2019-02-18T18:01:37.981Z,10.09
2019-02-18T18:04:08.014Z,9.92
2019-02-18T18:06:38.045Z,9.94
2019-02-18T18:09:08.888Z,9.98
2019-02-18T18:11:38.912Z,9.96
2019-02-18T18:14:08.935Z,9.80
2019-02-18T18:16:38.941Z,9.84
2019-02-18T18:19:09.616Z,9.82
2019-02-18T18:21:39.838Z,9.87
2019-02-18T18:24:10.047Z,9.79
2019-02-18T18:26:40.081Z,9.79
2019-02-18T18:29:10.119Z,9.62
2019-02-18T18:31:40.138Z,9.76
2019-02-18T18:34:10.187Z,9.65
2019-02-18T18:36:40.253Z,9.60
2019-02-18T18:39:10.276Z,9.44
2019-02-18T18:41:40.315Z,9.39
2019-02-18T18:44:10.311Z,9.26
2019-02-18T18:46:40.383Z,9.26
2019-02-18T18:49:10.407Z,9.23
2019-02-18T18:51:40.734Z,9.19
2019-02-18T18:54:10.767Z,9.20
2019-02-18T18:56:40.816Z,9.30
2019-02-18T18:59:10.819Z,9.26
2019-02-18T19:01:40.860Z,9.39
2019-02-18T19:04:11.061Z,9.23
2019-02-18T19:06:41.099Z,8.95
2019-02-18T19:09:11.119Z,9.05
2019-02-18T19:11:41.179Z,9.00
2019-02-18T19:14:11.185Z,9.08
2019-02-18T19:16:41.276Z,9.05
2019-02-18T19:19:11.287Z,9.13
2019-02-18T19:21:41.337Z,9.09
2019-02-18T19:24:11.422Z,8.99
2019-02-18T19:26:41.486Z,8.95
2019-02-18T19:29:11.522Z,8.96
2019-02-18T19:31:41.852Z,8.93
2019-02-18T19:34:11.837Z,8.93
2019-02-18T19:36:41.855Z,8.85
2019-02-18T19:39:11.891Z,8.83
2019-02-18T19:41:41.949Z,8.68
2019-02-18T19:44:12.030Z,8.65
2019-02-18T19:46:42.190Z,8.51
2019-02-18T19:49:12.226Z,8.44
2019-02-18T19:51:42.285Z,8.41
2019-02-18T19:54:12.365Z,8.39
2019-02-18T19:56:42.418Z,8.34
2019-02-18T19:59:12.609Z,8.69
2019-02-18T20:01:42.719Z,8.57
2019-02-18T20:04:16.047Z,8.78
2019-02-18T20:06:46.067Z,8.63
2019-02-18T20:09:16.281Z,8.66
2019-02-18T20:11:46.591Z,8.63
2019-02-18T20:14:16.627Z,8.42
2019-02-18T20:16:46.628Z,8.52
2019-02-18T20:19:16.661Z,8.48
2019-02-18T20:21:46.681Z,8.42
2019-02-18T20:24:16.726Z,8.50
2019-02-18T20:26:46.749Z,8.42
2019-02-18T20:29:16.941Z,8.30
2019-02-18T20:31:46.960Z,8.32
2019-02-18T20:34:17.033Z,8.36
2019-02-18T20:36:47.500Z,8.28
2019-02-18T20:39:17.831Z,8.22
2019-02-18T20:41:47.824Z,8.13
2019-02-18T20:44:19.581Z,8.07
2019-02-18T20:46:49.575Z,8.01
2019-02-18T20:49:19.638Z,7.99
2019-02-18T20:51:49.922Z,7.94
2019-02-18T20:54:19.962Z,7.89
2019-02-18T20:56:49.994Z,7.88
2019-02-18T20:59:20.020Z,7.88
2019-02-18T21:01:50.040Z,7.90
2019-02-18T21:04:20.069Z,7.88
2019-02-18T21:06:50.280Z,7.73
2019-02-18T21:09:20.358Z,7.76
2019-02-18T21:11:50.383Z,7.83
2019-02-18T21:14:20.488Z,7.87
2019-02-18T21:16:50.526Z,7.85
2019-02-18T21:19:20.918Z,7.91
2019-02-18T21:21:50.980Z,7.62
2019-02-18T21:24:21.003Z,7.63
2019-02-18T21:26:51.020Z,7.67
2019-02-18T21:29:21.018Z,7.69
2019-02-18T21:31:51.050Z,7.68
2019-02-18T21:34:21.330Z,7.69
2019-02-18T21:36:51.345Z,7.78
2019-02-18T21:39:21.327Z,7.77
2019-02-18T21:41:51.363Z,7.62
2019-02-18T21:44:25.447Z,7.70
2019-02-18T21:46:53.086Z,7.66
2019-02-18T21:49:23.117Z,7.70
2019-02-18T21:51:53.183Z,7.67
2019-02-18T21:54:23.180Z,7.62
2019-02-18T21:56:53.235Z,7.65
2019-02-18T21:59:23.526Z,7.48
2019-02-18T22:01:53.718Z,7.40
2019-02-18T22:04:23.735Z,7.44
2019-02-18T22:06:53.816Z,7.26
2019-02-18T22:09:23.854Z,7.10
2019-02-18T22:11:54.105Z,7.34
2019-02-18T22:14:24.124Z,7.22
2019-02-18T22:16:54.148Z,7.35
2019-02-18T22:19:24.247Z,7.14
2019-02-18T22:21:54.270Z,7.30
2019-02-18T22:24:24.271Z,7.29
2019-02-18T22:26:54.332Z,7.34
2019-02-18T22:29:24.438Z,7.39
2019-02-18T22:31:54.470Z,7.28
2019-02-18T22:34:24.487Z,7.42
2019-02-18T22:36:54.590Z,7.41
2019-02-18T22:39:24.595Z,7.36
2019-02-18T22:41:54.663Z,7.40
2019-02-18T22:44:24.671Z,7.42
2019-02-18T22:46:54.684Z,7.41
2019-02-18T22:49:24.779Z,7.32
2019-02-18T22:51:54.869Z,7.39
2019-02-18T22:54:24.894Z,7.39
2019-02-18T22:56:54.952Z,7.36
2019-02-18T22:59:25.033Z,7.36
2019-02-18T23:01:55.205Z,7.15
2019-02-18T23:04:25.178Z,7.20
2019-02-18T23:06:55.156Z,7.19
2019-02-18T23:09:25.258Z,7.27
2019-02-18T23:11:55.312Z,7.18
2019-02-18T23:14:25.408Z,7.28
2019-02-18T23:16:55.414Z,7.22
2019-02-18T23:19:25.429Z,7.17
2019-02-18T23:21:55.440Z,7.26
2019-02-18T23:24:25.427Z,7.25
2019-02-18T23:26:55.422Z,7.28
2019-02-18T23:29:25.878Z,7.34
2019-02-18T23:31:55.854Z,7.44
2019-02-18T23:34:25.854Z,7.40
2019-02-18T23:36:55.872Z,7.42
2019-02-18T23:39:25.886Z,7.46
2019-02-18T23:41:55.870Z,7.45
2019-02-18T23:44:25.884Z,7.48
2019-02-18T23:46:55.888Z,7.60
2019-02-18T23:49:25.899Z,7.56
2019-02-18T23:51:55.994Z,7.63
2019-02-18T23:54:25.976Z,7.70
2019-02-18T23:56:55.983Z,7.67
2019-02-18T23:59:25.978Z,7.66
